Time;durP1;ratioP1;P1;durP2;ratioP2;P2;SDS_P1;SDS_P2;PMS_P1;PMS_P2;Temp;Humidity;BMP_temperature;BMP_pressure;BME280_temperature;BME280_humidity;BME280_pressure;Samples;Min_cycle;Max_cycle;Signal;HPM_P1;HPM_P2
2022/12/19 00:01:07;;;;;;;16.13;11.60;;;;;;;;;;5017164;28;20485;-74
2022/12/19 00:03:33;;;;;;;20.27;13.33;;;;;;;;;;5017479;28;20193;-76
2022/12/19 00:06:02;;;;;;;19.10;12.50;;;;;;;;;;5036911;28;20430;-75
2022/12/19 00:08:30;;;;;;;19.50;13.70;;;;;;;;;;5035690;28;20187;-75
2022/12/19 00:10:56;;;;;;;20.00;13.97;;;;;;;;;;5035716;28;20430;-77
2022/12/19 00:13:21;;;;;;;17.87;13.57;;;;;;;;;;5035295;28;20852;-75
2022/12/19 00:15:47;;;;;;;19.33;13.27;;;;;;;;;;5029449;28;20465;-76
2022/12/19 00:18:15;;;;;;;21.90;13.63;;;;;;;;;;5038089;28;20187;-75
2022/12/19 00:20:40;;;;;;;18.30;13.37;;;;;;;;;;5034175;28;20200;-74
2022/12/19 00:23:06;;;;;;;17.17;13.03;;;;;;;;;;5035478;28;20421;-79
2022/12/19 00:25:31;;;;;;;20.30;13.70;;;;;;;;;;5021298;28;20191;-75
2022/12/19 00:27:57;;;;;;;18.47;13.90;;;;;;;;;;5024467;28;20436;-77
2022/12/19 00:30:22;;;;;;;18.13;12.57;;;;;;;;;;5017293;28;20651;-75
2022/12/19 00:32:47;;;;;;;19.87;13.57;;;;;;;;;;5038994;28;20206;-79
2022/12/19 00:35:13;;;;;;;19.83;14.23;;;;;;;;;;5031074;28;20180;-76
2022/12/19 00:37:38;;;;;;;19.27;13.60;;;;;;;;;;5021537;28;20204;-80
2022/12/19 00:40:04;;;;;;;21.90;15.43;;;;;;;;;;5034946;28;20649;-78
2022/12/19 00:42:29;;;;;;;20.43;14.33;;;;;;;;;;5034188;28;20184;-77
2022/12/19 00:44:55;;;;;;;19.37;13.50;;;;;;;;;;5032671;28;20438;-80
2022/12/19 00:47:20;;;;;;;21.93;15.40;;;;;;;;;;5018345;28;20192;-77
2022/12/19 00:49:45;;;;;;;19.83;13.67;;;;;;;;;;5033282;28;20201;-75
2022/12/19 00:52:10;;;;;;;19.10;13.50;;;;;;;;;;5040173;28;20267;-75
2022/12/19 00:54:36;;;;;;;22.70;15.70;;;;;;;;;;5038166;28;20560;-79
2022/12/19 00:57:01;;;;;;;23.27;14.87;;;;;;;;;;5020499;28;20290;-75
2022/12/19 00:59:26;;;;;;;19.30;14.60;;;;;;;;;;5038206;28;20200;-75
2022/12/19 01:01:52;;;;;;;21.50;15.23;;;;;;;;;;5037939;28;20176;-76
2022/12/19 01:04:17;;;;;;;23.27;15.50;;;;;;;;;;5019354;28;20228;-81
2022/12/19 01:06:42;;;;;;;23.60;15.87;;;;;;;;;;5038333;28;20187;-77
2022/12/19 01:09:09;;;;;;;24.30;15.50;;;;;;;;;;5040306;28;20200;-78
2022/12/19 01:14:18;;;;;;;20.77;14.57;;;;;;;;;;5041120;28;20804;-76
2022/12/19 01:16:43;;;;;;;22.57;15.70;;;;;;;;;;5039456;28;20489;-75
2022/12/19 01:19:09;;;;;;;25.70;16.03;;;;;;;;;;5034121;28;20219;-74
2022/12/19 01:21:34;;;;;;;23.77;16.10;;;;;;;;;;5035571;28;20246;-74
2022/12/19 01:24:00;;;;;;;27.20;17.77;;;;;;;;;;5042633;28;20176;-74
2022/12/19 01:26:25;;;;;;;25.43;18.10;;;;;;;;;;5040576;28;20230;-76
2022/12/19 01:28:50;;;;;;;24.73;16.93;;;;;;;;;;5038700;28;20207;-75
2022/12/19 01:31:16;;;;;;;24.03;16.73;;;;;;;;;;5038567;28;20671;-78
2022/12/19 01:33:41;;;;;;;21.60;15.87;;;;;;;;;;5040902;28;20188;-75
2022/12/19 01:36:06;;;;;;;28.10;17.20;;;;;;;;;;5025987;28;20673;-75
2022/12/19 01:38:32;;;;;;;25.77;17.77;;;;;;;;;;5042434;28;20183;-79
2022/12/19 01:40:58;;;;;;;25.83;16.83;;;;;;;;;;5035575;28;20585;-78
2022/12/19 01:43:24;;;;;;;22.90;15.83;;;;;;;;;;5031504;28;20437;-77
2022/12/19 01:45:53;;;;;;;24.20;16.30;;;;;;;;;;5039470;28;20271;-75
2022/12/19 01:48:19;;;;;;;24.10;17.47;;;;;;;;;;5037325;28;20653;-76
2022/12/19 01:50:50;;;;;;;24.80;17.20;;;;;;;;;;5036626;28;20544;-78
2022/12/19 01:53:15;;;;;;;24.87;17.93;;;;;;;;;;5020101;28;20234;-76
2022/12/19 01:55:42;;;;;;;24.90;17.20;;;;;;;;;;5035531;28;20946;-78
2022/12/19 01:58:08;;;;;;;27.00;17.03;;;;;;;;;;5018062;28;20529;-79
2022/12/19 02:00:33;;;;;;;25.53;18.00;;;;;;;;;;5022943;28;20465;-78
2022/12/19 02:03:01;;;;;;;24.37;16.63;;;;;;;;;;5020415;28;20434;-76
2022/12/19 02:05:27;;;;;;;21.87;15.90;;;;;;;;;;5036322;28;20184;-76
2022/12/19 02:07:52;;;;;;;25.03;17.60;;;;;;;;;;5039377;28;20960;-78
2022/12/19 02:10:18;;;;;;;25.70;16.83;;;;;;;;;;5038289;28;20286;-75
2022/12/19 02:12:44;;;;;;;29.73;17.27;;;;;;;;;;5024266;28;20302;-75
2022/12/19 02:15:12;;;;;;;25.07;18.07;;;;;;;;;;5036365;28;20314;-75
2022/12/19 02:17:41;;;;;;;26.30;17.13;;;;;;;;;;5019628;28;20557;-76
2022/12/19 02:20:06;;;;;;;26.57;18.17;;;;;;;;;;5022047;28;20500;-76
2022/12/19 02:22:43;;;;;;;25.37;18.27;;;;;;;;;;5030433;28;20426;-74
2022/12/19 02:25:11;;;;;;;27.90;18.80;;;;;;;;;;5035893;28;20230;-76
2022/12/19 02:27:53;;;;;;;23.10;17.00;;;;;;;;;;5041873;28;20498;-74
2022/12/19 02:30:28;;;;;;;27.10;18.27;;;;;;;;;;5040692;28;20477;-74
2022/12/19 02:32:53;;;;;;;26.90;17.53;;;;;;;;;;5040729;28;20465;-74
2022/12/19 02:35:21;;;;;;;26.00;18.40;;;;;;;;;;5036412;28;20528;-74
2022/12/19 02:37:48;;;;;;;24.63;16.90;;;;;;;;;;5037239;28;20192;-75
2022/12/19 02:40:27;;;;;;;24.40;17.20;;;;;;;;;;5037635;28;20520;-73
2022/12/19 02:42:56;;;;;;;27.40;18.53;;;;;;;;;;5033325;28;21541;-74
2022/12/19 02:45:22;;;;;;;30.80;18.00;;;;;;;;;;5022703;28;20438;-74
2022/12/19 02:47:47;;;;;;;27.60;18.60;;;;;;;;;;5035054;28;20513;-74
2022/12/19 02:50:12;;;;;;;26.80;18.60;;;;;;;;;;5037053;28;20558;-74
2022/12/19 02:52:38;;;;;;;25.43;18.97;;;;;;;;;;5036874;28;20180;-74
2022/12/19 02:55:05;;;;;;;26.73;17.80;;;;;;;;;;5039399;28;20226;-73
2022/12/19 02:57:32;;;;;;;26.97;19.00;;;;;;;;;;5036500;28;20917;-75
2022/12/19 03:00:08;;;;;;;26.23;17.73;;;;;;;;;;5034031;28;20450;-73
2022/12/19 03:02:46;;;;;;;25.40;17.70;;;;;;;;;;5020832;28;20434;-74
2022/12/19 03:05:11;;;;;;;26.90;18.77;;;;;;;;;;5036703;28;20427;-74
2022/12/19 03:07:48;;;;;;;27.20;18.47;;;;;;;;;;5035928;28;20441;-74
2022/12/19 03:10:23;;;;;;;26.10;17.30;;;;;;;;;;5036648;28;20203;-75
2022/12/19 03:13:07;;;;;;;25.90;18.10;;;;;;;;;;5035898;28;20438;-75
2022/12/19 03:15:36;;;;;;;31.70;18.37;;;;;;;;;;5022907;28;20501;-76
2022/12/19 03:18:02;;;;;;;27.70;18.43;;;;;;;;;;5033331;28;20441;-74
2022/12/19 03:20:46;;;;;;;27.80;18.55;;;;;;;;;;5018655;28;20989;-75
2022/12/19 03:23:12;;;;;;;29.27;19.40;;;;;;;;;;5023676;28;20184;-74
2022/12/19 03:25:38;;;;;;;26.10;19.17;;;;;;;;;;5039320;28;20449;-75
2022/12/19 03:28:07;;;;;;;27.60;17.70;;;;;;;;;;5021796;28;20560;-74
2022/12/19 03:30:33;;;;;;;29.90;19.13;;;;;;;;;;5020056;28;20447;-74
2022/12/19 03:32:59;;;;;;;32.43;20.43;;;;;;;;;;5021433;28;20968;-74
2022/12/19 03:35:26;;;;;;;30.70;19.35;;;;;;;;;;5038329;28;20617;-75
2022/12/19 03:37:54;;;;;;;27.40;19.97;;;;;;;;;;5035428;28;20334;-74
2022/12/19 03:40:21;;;;;;;30.27;19.00;;;;;;;;;;5019225;28;20535;-77
2022/12/19 03:45:42;;;;;;;28.43;18.77;;;;;;;;;;5035161;28;20476;-73
2022/12/19 03:48:14;;;;;;;28.53;19.23;;;;;;;;;;5035512;28;20444;-74
2022/12/19 03:50:47;;;;;;;32.78;20.77;;;;;;;;;;5046189;22;20471;-80
2022/12/19 03:53:12;;;;;;;30.77;21.85;;;;;;;;;;5008758;28;20461;-80
2022/12/19 03:55:45;;;;;;;32.23;20.90;;;;;;;;;;5028142;28;20184;-79
2022/12/19 03:58:18;;;;;;;28.43;19.40;;;;;;;;;;5033867;28;20221;-79
2022/12/19 04:00:46;;;;;;;33.13;21.73;;;;;;;;;;5016688;28;20728;-81
2022/12/19 04:03:12;;;;;;;28.20;18.80;;;;;;;;;;5039959;28;20458;-80
2022/12/19 04:05:41;;;;;;;30.93;20.57;;;;;;;;;;5041861;28;20406;-80
2022/12/19 04:08:07;;;;;;;31.77;20.57;;;;;;;;;;5039045;28;20435;-80
2022/12/19 04:10:35;;;;;;;28.33;18.80;;;;;;;;;;5043282;28;20435;-81
2022/12/19 04:13:07;;;;;;;28.97;19.27;;;;;;;;;;5041392;28;20200;-81
2022/12/19 04:15:36;;;;;;;30.90;20.70;;;;;;;;;;5046962;28;20380;-80
2022/12/19 04:18:04;;;;;;;27.05;20.88;;;;;;;;;;5033227;28;20419;-81
2022/12/19 04:20:31;;;;;;;31.97;20.67;;;;;;;;;;5049258;28;20198;-82
2022/12/19 04:23:21;;;;;;;26.87;20.20;;;;;;;;;;5035070;28;20419;-82
2022/12/19 04:25:48;;;;;;;31.77;20.60;;;;;;;;;;5037388;28;20445;-81
2022/12/19 04:28:24;;;;;;;28.47;18.87;;;;;;;;;;5034263;28;20415;-82
2022/12/19 04:30:50;;;;;;;29.47;19.87;;;;;;;;;;5048648;28;20427;-82
2022/12/19 04:33:16;;;;;;;27.20;19.03;;;;;;;;;;5052278;28;20419;-82
2022/12/19 04:35:41;;;;;;;30.30;20.60;;;;;;;;;;5044579;28;20415;-83
2022/12/19 04:38:07;;;;;;;31.60;21.60;;;;;;;;;;5035927;28;20156;-82
2022/12/19 04:40:33;;;;;;;33.43;21.33;;;;;;;;;;5026283;28;20188;-82
2022/12/19 04:42:59;;;;;;;39.53;21.77;;;;;;;;;;5033295;28;20172;-83
2022/12/19 04:45:24;;;;;;;32.50;21.37;;;;;;;;;;5044012;28;20498;-84
2022/12/19 04:47:53;;;;;;;32.20;21.20;;;;;;;;;;5036441;28;20204;-83
2022/12/19 04:50:18;;;;;;;37.73;21.47;;;;;;;;;;5050202;28;20173;-83
2022/12/19 04:52:44;;;;;;;30.30;22.27;;;;;;;;;;5027879;28;20426;-83
2022/12/19 04:55:09;;;;;;;34.87;21.90;;;;;;;;;;5048789;28;20180;-82
2022/12/19 04:57:38;;;;;;;32.53;21.37;;;;;;;;;;5057792;28;20262;-83
2022/12/19 05:00:05;;;;;;;32.67;21.70;;;;;;;;;;5053513;28;20232;-83
2022/12/19 05:02:31;;;;;;;30.20;21.33;;;;;;;;;;5038883;28;20427;-83
2022/12/19 05:04:59;;;;;;;36.30;21.80;;;;;;;;;;5052679;28;20410;-83
2022/12/19 05:07:25;;;;;;;30.90;23.35;;;;;;;;;;5047549;28;20426;-83
2022/12/19 05:09:50;;;;;;;33.07;22.70;;;;;;;;;;5034343;28;20168;-82
2022/12/19 05:12:16;;;;;;;33.87;22.70;;;;;;;;;;5054332;28;20180;-82
2022/12/19 05:14:42;;;;;;;41.07;23.13;;;;;;;;;;5035550;28;20183;-82
2022/12/19 05:17:10;;;;;;;39.67;23.90;;;;;;;;;;5032994;28;20197;-82
2022/12/19 05:19:36;;;;;;;32.77;25.13;;;;;;;;;;5033276;28;20411;-83
2022/12/19 05:22:04;;;;;;;35.40;23.87;;;;;;;;;;5050632;28;20464;-82
2022/12/19 05:24:29;;;;;;;38.67;24.73;;;;;;;;;;5033930;28;20173;-83
2022/12/19 05:26:55;;;;;;;34.07;23.20;;;;;;;;;;5037551;28;20425;-84
2022/12/19 05:29:21;;;;;;;38.83;23.17;;;;;;;;;;5033234;28;20185;-84
2022/12/19 05:31:46;;;;;;;37.10;22.30;;;;;;;;;;5046529;28;20180;-85
2022/12/19 05:34:19;;;;;;;38.43;24.37;;;;;;;;;;5035053;28;20167;-84
2022/12/19 05:36:45;;;;;;;33.67;24.50;;;;;;;;;;5033353;28;20438;-84
2022/12/19 05:39:13;;;;;;;31.33;22.70;;;;;;;;;;5037961;28;20172;-84
2022/12/19 05:41:39;;;;;;;38.83;24.40;;;;;;;;;;5047762;28;20462;-84
2022/12/19 05:44:08;;;;;;;36.43;21.93;;;;;;;;;;5030027;28;20488;-82
2022/12/19 05:46:35;;;;;;;36.17;23.40;;;;;;;;;;5029400;28;20360;-82
2022/12/19 05:49:01;;;;;;;38.53;26.90;;;;;;;;;;5034764;28;20410;-84
2022/12/19 05:51:27;;;;;;;38.00;25.07;;;;;;;;;;5036427;28;20462;-85
2022/12/19 05:53:53;;;;;;;34.07;23.10;;;;;;;;;;5035333;28;20200;-85
2022/12/19 05:56:19;;;;;;;35.70;23.80;;;;;;;;;;5034821;28;20451;-85
2022/12/19 05:58:45;;;;;;;39.90;25.70;;;;;;;;;;5029984;28;20173;-83
2022/12/19 06:01:16;;;;;;;37.72;26.02;;;;;;;;;;5043505;28;20482;-84
2022/12/19 06:03:41;;;;;;;35.43;24.13;;;;;;;;;;5049085;28;20172;-84
2022/12/19 06:06:08;;;;;;;39.00;23.50;;;;;;;;;;5030768;28;20436;-84
2022/12/19 06:08:34;;;;;;;42.23;23.80;;;;;;;;;;5040033;28;20268;-83
2022/12/19 06:11:04;;;;;;;34.50;22.37;;;;;;;;;;5030795;28;20505;-80
2022/12/19 06:13:32;;;;;;;39.63;25.57;;;;;;;;;;5027000;28;20435;-78
2022/12/19 06:15:58;;;;;;;33.73;24.20;;;;;;;;;;5023547;28;20429;-80
2022/12/19 06:31:35;;;;;;;34.47;22.77;;;;;;;;;;6285587;22;1352099;-74
2022/12/19 06:34:01;;;;;;;35.03;23.40;;;;;;;;;;6341264;22;20714;-72
2022/12/19 06:36:27;;;;;;;34.83;24.30;;;;;;;;;;6341400;22;20175;-72
2022/12/19 06:38:53;;;;;;;37.00;23.60;;;;;;;;;;6337459;22;20684;-75
2022/12/19 06:44:03;;;;;;;41.17;25.40;;;;;;;;;;6339025;22;20351;-73
2022/12/19 06:46:29;;;;;;;35.60;24.10;;;;;;;;;;6338657;22;20417;-72
2022/12/19 06:48:54;;;;;;;33.83;23.90;;;;;;;;;;6340016;22;20409;-72
2022/12/19 06:51:19;;;;;;;36.10;23.87;;;;;;;;;;6340808;22;20575;-72
2022/12/19 06:53:45;;;;;;;38.13;24.17;;;;;;;;;;6337880;22;20148;-72
2022/12/19 06:56:12;;;;;;;36.00;24.70;;;;;;;;;;6341784;22;20588;-73
2022/12/19 06:58:37;;;;;;;38.27;24.53;;;;;;;;;;6338976;22;20223;-72
2022/12/19 07:01:03;;;;;;;33.33;24.60;;;;;;;;;;6341894;22;20813;-73
2022/12/19 07:03:31;;;;;;;33.73;22.53;;;;;;;;;;6339811;22;20145;-72
2022/12/19 07:05:56;;;;;;;36.07;24.60;;;;;;;;;;6341596;22;20148;-72
2022/12/19 07:08:21;;;;;;;31.10;22.23;;;;;;;;;;6341032;22;20517;-72
2022/12/19 07:10:46;;;;;;;38.10;23.17;;;;;;;;;;6340758;22;20214;-73
2022/12/19 07:13:12;;;;;;;32.33;21.37;;;;;;;;;;6342776;22;20168;-73
2022/12/19 07:15:38;;;;;;;38.20;23.03;;;;;;;;;;6340733;22;20147;-73
2022/12/19 07:18:04;;;;;;;30.00;22.07;;;;;;;;;;6339548;22;20255;-73
2022/12/19 07:20:30;;;;;;;39.23;23.30;;;;;;;;;;6339702;22;20359;-72
2022/12/19 07:22:55;;;;;;;31.80;21.33;;;;;;;;;;6340653;22;20846;-73
2022/12/19 07:25:21;;;;;;;36.10;22.80;;;;;;;;;;6340410;22;20462;-73
2022/12/19 07:27:46;;;;;;;32.60;22.70;;;;;;;;;;6340367;22;20141;-73
2022/12/19 07:30:12;;;;;;;30.67;21.30;;;;;;;;;;6353516;22;20187;-73
2022/12/19 07:32:38;;;;;;;34.17;21.70;;;;;;;;;;6366987;22;20692;-73
2022/12/19 07:35:03;;;;;;;32.97;22.30;;;;;;;;;;6366924;22;20144;-73
2022/12/19 07:37:29;;;;;;;35.67;23.27;;;;;;;;;;6366849;22;20382;-72
2022/12/19 07:39:54;;;;;;;27.90;21.83;;;;;;;;;;6335456;22;20255;-72
2022/12/19 07:42:20;;;;;;;38.87;23.63;;;;;;;;;;6364445;22;20141;-73
2022/12/19 07:44:45;;;;;;;31.53;23.37;;;;;;;;;;6336729;22;20152;-73
2022/12/19 07:47:10;;;;;;;33.23;23.87;;;;;;;;;;6366222;22;20859;-73
2022/12/19 07:49:36;;;;;;;28.63;22.23;;;;;;;;;;6338108;22;20187;-73
2022/12/19 07:52:01;;;;;;;34.90;24.50;;;;;;;;;;6338786;22;20176;-73
2022/12/19 07:54:26;;;;;;;33.53;23.00;;;;;;;;;;6338408;22;20163;-75
2022/12/19 07:56:52;;;;;;;31.83;22.57;;;;;;;;;;6365297;22;20153;-73
2022/12/19 07:59:17;;;;;;;31.80;23.60;;;;;;;;;;6363150;22;20164;-72
2022/12/19 08:01:42;;;;;;;35.40;23.20;;;;;;;;;;6362243;22;20171;-74
2022/12/19 08:04:07;;;;;;;31.27;22.50;;;;;;;;;;6363828;22;20224;-73
2022/12/19 08:06:33;;;;;;;33.03;22.77;;;;;;;;;;6334740;22;20156;-74
2022/12/19 08:08:58;;;;;;;37.03;22.00;;;;;;;;;;6360908;22;20168;-74
2022/12/19 08:11:28;;;;;;;30.57;22.83;;;;;;;;;;6360908;22;20186;-74
2022/12/19 08:13:54;;;;;;;31.07;23.10;;;;;;;;;;6338920;22;20650;-74
2022/12/19 08:16:23;;;;;;;28.90;22.83;;;;;;;;;;6338924;22;20453;-73
2022/12/19 08:18:49;;;;;;;30.50;23.30;;;;;;;;;;6365969;22;20418;-74
2022/12/19 08:21:14;;;;;;;28.17;21.37;;;;;;;;;;6363570;22;20363;-74
2022/12/19 08:23:40;;;;;;;32.20;23.67;;;;;;;;;;6366062;22;20141;-74
2022/12/19 08:26:06;;;;;;;27.10;21.67;;;;;;;;;;6338626;22;20145;-74
2022/12/19 08:28:32;;;;;;;32.17;22.73;;;;;;;;;;6359663;22;20213;-74
2022/12/19 08:30:59;;;;;;;26.63;21.23;;;;;;;;;;6363936;22;20422;-74
2022/12/19 08:33:24;;;;;;;28.77;21.60;;;;;;;;;;6333389;22;20504;-75
2022/12/19 08:35:50;;;;;;;31.47;23.17;;;;;;;;;;6362882;22;20905;-75
2022/12/19 08:38:15;;;;;;;33.77;23.23;;;;;;;;;;6363495;22;20211;-75
2022/12/19 08:40:40;;;;;;;31.87;22.77;;;;;;;;;;6364161;22;20144;-75
2022/12/19 08:43:08;;;;;;;31.17;22.43;;;;;;;;;;6363008;22;20145;-74
2022/12/19 08:45:33;;;;;;;28.10;20.63;;;;;;;;;;6364121;22;20145;-75
2022/12/19 08:47:58;;;;;;;28.85;21.35;;;;;;;;;;6362942;22;20379;-75
2022/12/19 08:50:24;;;;;;;;;;;;;;;;;;6332436;22;20368;-75
2022/12/19 08:52:49;;;;;;;31.15;22.30;;;;;;;;;;6332516;22;25094;-75
2022/12/19 08:55:15;;;;;;;28.23;21.93;;;;;;;;;;6361220;22;20523;-76
2022/12/19 08:57:40;;;;;;;31.20;20.67;;;;;;;;;;6363856;22;20141;-75
2022/12/19 09:00:07;;;;;;;27.90;23.00;;;;;;;;;;6360391;22;20174;-74
2022/12/19 09:02:32;;;;;;;31.73;22.03;;;;;;;;;;6364366;22;20506;-75
2022/12/19 09:04:57;;;;;;;25.20;20.43;;;;;;;;;;6362917;22;20366;-76
2022/12/19 09:07:23;;;;;;;27.83;20.73;;;;;;;;;;6361583;22;20140;-75
2022/12/19 09:09:48;;;;;;;29.03;21.83;;;;;;;;;;6330885;22;20889;-74
2022/12/19 09:12:14;;;;;;;28.30;21.53;;;;;;;;;;6361338;22;20141;-76
2022/12/19 09:14:39;;;;;;;26.73;21.00;;;;;;;;;;6363296;22;20830;-74
2022/12/19 09:17:07;;;;;;;26.00;19.50;;;;;;;;;;6366097;22;20227;-75
2022/12/19 09:19:33;;;;;;;28.23;21.20;;;;;;;;;;6333018;22;20173;-76
2022/12/19 09:21:58;;;;;;;31.10;21.60;;;;;;;;;;6336482;22;20972;-74
2022/12/19 09:24:23;;;;;;;24.67;19.07;;;;;;;;;;6363535;22;20152;-74
2022/12/19 09:26:49;;;;;;;27.80;20.77;;;;;;;;;;6362783;22;20144;-74
2022/12/19 09:29:14;;;;;;;26.03;19.30;;;;;;;;;;6359663;22;25054;-74
2022/12/19 09:31:39;;;;;;;25.53;19.20;;;;;;;;;;6362193;22;20180;-74
2022/12/19 09:34:05;;;;;;;25.90;20.10;;;;;;;;;;6333115;22;20497;-74
2022/12/19 09:36:30;;;;;;;23.07;19.10;;;;;;;;;;6359014;22;20155;-74
2022/12/19 09:38:56;;;;;;;22.93;17.17;;;;;;;;;;6360090;22;20237;-74
2022/12/19 09:41:24;;;;;;;25.03;18.47;;;;;;;;;;6360705;22;20165;-75
2022/12/19 09:44:09;;;;;;;26.83;18.90;;;;;;;;;;6360656;22;20366;-74
2022/12/19 09:46:49;;;;;;;26.77;20.67;;;;;;;;;;6361669;22;20366;-74
2022/12/19 09:49:20;;;;;;;25.33;18.50;;;;;;;;;;6332976;22;20418;-74
2022/12/19 09:52:06;;;;;;;29.10;18.57;;;;;;;;;;6360864;22;20377;-74
2022/12/19 09:54:40;;;;;;;25.07;18.03;;;;;;;;;;6337232;22;20463;-74
2022/12/19 09:57:11;;;;;;;21.53;17.40;;;;;;;;;;6363279;22;20445;-73
2022/12/19 09:59:46;;;;;;;27.63;17.33;;;;;;;;;;6364846;22;20383;-74
2022/12/19 10:02:11;;;;;;;;;;;;;;;;;;6335393;22;20412;-74
2022/12/19 10:04:36;;;;;;;;;;;;;;;;;;6362973;22;25042;-74
2022/12/19 10:07:01;;;;;;;;;;;;;;;;;;6362181;22;25051;-74
2022/12/19 10:09:27;;;;;;;;;;;;;;;;;;6356100;22;20043;-74
2022/12/19 10:11:52;;;;;;;;;;;;;;;;;;6363089;22;25075;-75
2022/12/19 10:14:17;;;;;;;;;;;;;;;;;;6360970;22;25075;-74
2022/12/19 10:16:42;;;;;;;;;;;;;;;;;;6361985;22;25070;-74
2022/12/19 10:19:09;;;;;;;27.60;20.50;;;;;;;;;;6361233;22;25126;-75
2022/12/19 10:21:34;;;;;;;;;;;;;;;;;;6352631;22;25051;-74
2022/12/19 10:23:59;;;;;;;;;;;;;;;;;;6329796;22;20224;-74
2022/12/19 10:26:29;;;;;;;22.70;17.38;;;;;;;;;;6328613;22;20240;-73
2022/12/19 10:28:54;;;;;;;;;;;;;;;;;;6332978;22;25052;-74
2022/12/19 10:31:19;;;;;;;;;;;;;;;;;;6332885;22;25123;-74
2022/12/19 10:33:44;;;;;;;;;;;;;;;;;;6360028;22;25048;-73
2022/12/19 10:36:09;;;;;;;;;;;;;;;;;;6331356;22;25099;-74
2022/12/19 10:38:34;;;;;;;;;;;;;;;;;;6328935;22;25046;-74
2022/12/19 10:41:00;;;;;;;;;;;;;;;;;;6359406;22;20126;-74
2022/12/19 10:43:25;;;;;;;;;;;;;;;;;;6361781;22;20140;-75
2022/12/19 10:45:50;;;;;;;;;;;;;;;;;;6333040;22;25048;-74
2022/12/19 10:48:15;;;;;;;;;;;;;;;;;;6335188;22;20047;-74
2022/12/19 10:50:40;;;;;;;;;;;;;;;;;;6359888;22;25054;-74
2022/12/19 10:53:06;;;;;;;;;;;;;;;;;;6329685;22;25037;-74
2022/12/19 10:55:32;;;;;;;;;;;;;;;;;;6332552;22;20147;-74
2022/12/19 10:57:57;;;;;;;;;;;;;;;;;;6359403;22;20196;-75
2022/12/19 11:00:22;;;;;;;;;;;;;;;;;;6332120;22;20491;-75
2022/12/19 11:02:52;;;;;;;25.35;20.20;;;;;;;;;;6335348;22;20093;-74
2022/12/19 11:05:37;;;;;;;31.60;21.90;;;;;;;;;;6332376;22;20217;-74
2022/12/19 11:08:06;;;;;;;29.23;21.20;;;;;;;;;;6337106;22;20394;-75
2022/12/19 11:10:36;;;;;;;30.77;21.17;;;;;;;;;;6334878;22;20893;-75
2022/12/19 11:13:01;;;;;;;28.67;19.30;;;;;;;;;;6359822;22;20373;-74
2022/12/19 11:15:29;;;;;;;28.77;20.30;;;;;;;;;;6362109;22;20460;-74
2022/12/19 11:18:05;;;;;;;26.50;19.20;;;;;;;;;;6361733;22;20234;-74
2022/12/19 11:20:31;;;;;;;29.60;19.77;;;;;;;;;;6364202;22;20362;-74
2022/12/19 11:22:59;;;;;;;28.13;21.00;;;;;;;;;;6345613;22;20447;-70
2022/12/19 11:25:35;;;;;;;25.50;19.77;;;;;;;;;;6328844;22;20510;-68
2022/12/19 11:28:02;;;;;;;29.17;21.17;;;;;;;;;;6329070;22;20437;-68
2022/12/19 11:30:30;;;;;;;29.93;21.10;;;;;;;;;;6302186;22;20444;-70
2022/12/19 11:33:12;;;;;;;27.60;18.73;;;;;;;;;;6303276;22;20375;-70
2022/12/19 11:35:45;;;;;;;24.23;17.93;;;;;;;;;;6302001;22;20903;-69
2022/12/19 11:38:12;;;;;;;27.53;17.63;;;;;;;;;;6302517;22;20439;-69
2022/12/19 11:40:40;;;;;;;25.53;18.73;;;;;;;;;;6302715;22;21211;-69
2022/12/19 11:43:26;;;;;;;27.63;17.53;;;;;;;;;;6302324;22;20706;-70
2022/12/19 11:46:04;;;;;;;24.17;16.60;;;;;;;;;;6274063;22;20821;-70
2022/12/19 11:48:38;;;;;;;20.77;16.83;;;;;;;;;;6301513;22;20380;-72
2022/12/19 11:51:04;;;;;;;24.53;18.93;;;;;;;;;;6274526;22;20415;-69
2022/12/19 11:53:32;;;;;;;19.20;16.13;;;;;;;;;;6274112;22;20435;-69
2022/12/19 11:56:02;;;;;;;20.97;16.83;;;;;;;;;;6302652;22;20581;-69
2022/12/19 11:58:28;;;;;;;19.87;15.80;;;;;;;;;;6271237;22;20384;-69
2022/12/19 12:01:04;;;;;;;21.10;16.63;;;;;;;;;;6300234;22;20836;-70
2022/12/19 12:03:41;;;;;;;22.40;16.40;;;;;;;;;;6298251;22;20368;-71
2022/12/19 12:06:11;;;;;;;19.80;15.17;;;;;;;;;;6300033;22;20349;-71
2022/12/19 12:08:40;;;;;;;23.87;16.10;;;;;;;;;;6271360;22;20511;-68
2022/12/19 12:11:22;;;;;;;17.23;15.00;;;;;;;;;;6295640;22;20408;-70
2022/12/19 12:14:06;;;;;;;19.93;16.50;;;;;;;;;;6270457;22;20372;-69
2022/12/19 12:16:50;;;;;;;19.80;16.73;;;;;;;;;;6273782;22;20374;-70
2022/12/19 12:19:21;;;;;;;17.23;13.90;;;;;;;;;;6274863;22;20396;-72
2022/12/19 12:22:05;;;;;;;20.00;15.20;;;;;;;;;;6300103;22;20365;-70
2022/12/19 12:24:36;;;;;;;20.43;16.83;;;;;;;;;;6304218;22;20361;-72
2022/12/19 12:27:01;;;;;;;19.00;15.93;;;;;;;;;;6303550;22;20370;-72
2022/12/19 12:29:31;;;;;;;21.30;17.27;;;;;;;;;;6302031;22;20518;-70
2022/12/19 12:32:31;;;;;;;20.27;16.17;;;;;;;;;;6302493;22;20145;-68
2022/12/19 12:35:08;;;;;;;18.90;16.57;;;;;;;;;;6144983;23;20553;-68
2022/12/19 12:38:06;;;;;;;17.50;15.03;;;;;;;;;;6280144;22;20729;-69
2022/12/19 12:40:31;;;;;;;18.43;15.50;;;;;;;;;;6215977;22;21031;-70
2022/12/19 12:43:05;;;;;;;20.53;16.10;;;;;;;;;;6302446;22;20365;-70
2022/12/19 12:45:38;;;;;;;19.87;15.90;;;;;;;;;;6299504;22;20174;-70
2022/12/19 12:48:12;;;;;;;19.10;15.20;;;;;;;;;;6301109;22;20392;-69
2022/12/19 12:50:39;;;;;;;20.10;15.33;;;;;;;;;;6272916;22;20439;-70
2022/12/19 12:53:06;;;;;;;17.13;14.63;;;;;;;;;;6274726;22;20706;-70
2022/12/19 12:55:38;;;;;;;24.30;16.20;;;;;;;;;;6299895;22;20367;-69
2022/12/19 12:58:04;;;;;;;19.83;15.20;;;;;;;;;;6271776;22;20518;-69
2022/12/19 13:00:30;;;;;;;20.83;16.20;;;;;;;;;;6273018;22;20417;-70
2022/12/19 13:03:04;;;;;;;25.23;17.03;;;;;;;;;;6273152;22;20255;-70
2022/12/19 13:05:38;;;;;;;17.70;15.00;;;;;;;;;;6296774;22;20371;-69
2022/12/19 13:08:27;;;;;;;17.83;14.33;;;;;;;;;;6271791;22;20396;-69
2022/12/19 13:10:56;;;;;;;15.97;14.20;;;;;;;;;;6278233;22;21067;-69
2022/12/19 13:13:42;;;;;;;17.30;14.07;;;;;;;;;;6298926;22;20364;-70
2022/12/19 13:16:26;;;;;;;16.13;13.60;;;;;;;;;;6300635;22;20369;-70
2022/12/19 13:19:15;;;;;;;19.90;14.87;;;;;;;;;;6298150;22;20391;-70
2022/12/19 13:21:59;;;;;;;18.43;14.60;;;;;;;;;;6287885;22;20392;-69
2022/12/19 13:24:36;;;;;;;18.67;15.47;;;;;;;;;;6295655;22;20374;-69
2022/12/19 13:27:01;;;;;;;21.20;16.40;;;;;;;;;;6272062;22;20447;-69
2022/12/19 13:29:31;;;;;;;23.10;16.50;;;;;;;;;;6267889;22;20455;-69
2022/12/19 13:32:08;;;;;;;21.60;16.20;;;;;;;;;;6297163;22;20150;-69
2022/12/19 13:34:43;;;;;;;19.23;15.53;;;;;;;;;;6267671;22;20357;-68
2022/12/19 13:37:08;;;;;;;17.83;14.83;;;;;;;;;;6268962;22;20345;-71
2022/12/19 13:39:34;;;;;;;19.17;14.80;;;;;;;;;;6268058;22;20495;-69
2022/12/19 13:44:54;;;;;;;17.87;14.30;;;;;;;;;;6267930;22;20204;-70
2022/12/19 13:47:19;;;;;;;22.80;14.73;;;;;;;;;;6241478;22;20384;-69
2022/12/19 13:49:45;;;;;;;17.20;14.63;;;;;;;;;;6266466;22;20492;-70
2022/12/19 13:52:10;;;;;;;20.93;14.60;;;;;;;;;;6266492;22;20212;-70
2022/12/19 13:54:44;;;;;;;20.70;15.10;;;;;;;;;;6268169;22;20143;-70
2022/12/19 13:57:23;;;;;;;16.53;13.53;;;;;;;;;;6242373;22;20138;-70
2022/12/19 13:59:48;;;;;;;17.80;13.80;;;;;;;;;;6267258;22;20895;-70
2022/12/19 14:02:16;;;;;;;18.10;14.20;;;;;;;;;;6267305;22;20424;-70
2022/12/19 14:04:45;;;;;;;16.40;13.90;;;;;;;;;;6263798;22;20146;-72
2022/12/19 14:07:25;;;;;;;16.73;14.33;;;;;;;;;;6241472;22;20385;-69
2022/12/19 14:09:51;;;;;;;16.30;13.40;;;;;;;;;;6241624;22;20516;-69
2022/12/19 14:15:28;;;;;;;19.10;14.90;;;;;;;;;;6267699;22;20353;-70
2022/12/19 14:17:54;;;;;;;21.87;14.03;;;;;;;;;;6265357;22;20368;-69
2022/12/19 14:20:23;;;;;;;16.93;13.07;;;;;;;;;;6266860;22;20365;-69
2022/12/19 14:22:48;;;;;;;17.67;15.17;;;;;;;;;;6267078;22;20204;-70
2022/12/19 14:25:14;;;;;;;17.00;14.10;;;;;;;;;;6268431;22;20377;-69
2022/12/19 14:27:41;;;;;;;16.80;13.03;;;;;;;;;;6267271;22;20180;-69
2022/12/19 14:30:14;;;;;;;14.63;13.13;;;;;;;;;;6236616;22;20185;-70
2022/12/19 14:32:40;;;;;;;15.60;13.20;;;;;;;;;;6268209;22;20714;-68
2022/12/19 14:35:07;;;;;;;15.77;13.03;;;;;;;;;;6266667;22;20358;-68
2022/12/19 14:37:35;;;;;;;17.00;14.10;;;;;;;;;;6266702;22;20361;-71
2022/12/19 14:40:04;;;;;;;16.13;14.43;;;;;;;;;;6265634;22;20385;-70
2022/12/19 14:45:49;;;;;;;19.03;14.10;;;;;;;;;;6268934;22;20353;-69
2022/12/19 14:48:23;;;;;;;19.53;14.07;;;;;;;;;;6117778;23;20464;-70
2022/12/19 14:50:49;;;;;;;16.03;14.33;;;;;;;;;;6220916;22;20412;-70
2022/12/19 14:53:18;;;;;;;16.83;14.40;;;;;;;;;;6244090;22;20491;-70
2022/12/19 14:55:48;;;;;;;22.57;15.07;;;;;;;;;;6241704;22;20146;-70
2022/12/19 14:58:17;;;;;;;23.60;13.50;;;;;;;;;;6271169;22;20654;-72
2022/12/19 15:00:46;;;;;;;20.93;14.10;;;;;;;;;;6244314;22;20411;-70
2022/12/19 15:03:15;;;;;;;18.33;14.73;;;;;;;;;;6271244;22;20415;-68